createdAt,value
2022-08-17T00:00:49.394Z,11.73
2022-08-17T00:03:42.107Z,9.47
2022-08-17T00:06:31.305Z,11.45
2022-08-17T00:09:18.677Z,11.05
2022-08-17T00:12:51.508Z,11.20
2022-08-17T00:15:14.204Z,12.97
2022-08-17T00:18:00.873Z,11.15
2022-08-17T00:20:48.827Z,12.73
2022-08-17T00:23:35.854Z,14.32
2022-08-17T00:26:34.513Z,12.75
2022-08-17T00:29:30.181Z,14.77
2022-08-17T00:33:11.987Z,13.32
2022-08-17T00:35:25.246Z,14.77
2022-08-17T00:38:13.317Z,14.13
2022-08-17T00:41:01.977Z,15.30
2022-08-17T00:43:49.836Z,12.52
2022-08-17T00:46:39.208Z,12.13
2022-08-17T00:49:26.194Z,11.80
2022-08-17T00:52:16.560Z,11.70
2022-08-17T00:55:06.464Z,13.10
2022-08-17T00:57:55.823Z,12.85
2022-08-17T01:00:45.031Z,18.00
2022-08-17T01:03:32.200Z,15.00
2022-08-17T01:06:19.502Z,14.00
2022-08-17T01:09:06.907Z,15.82
2022-08-17T01:11:54.886Z,14.95
2022-08-17T01:14:42.357Z,19.73
2022-08-17T01:17:29.677Z,14.68
2022-08-17T01:20:16.836Z,15.52
2022-08-17T01:23:05.086Z,16.35
2022-08-17T01:25:52.162Z,15.37
2022-08-17T01:28:53.984Z,15.82
2022-08-17T01:31:45.842Z,14.23
2022-08-17T01:34:42.299Z,16.17
2022-08-17T01:37:32.001Z,17.15
2022-08-17T01:40:24.577Z,16.20
2022-08-17T01:43:12.774Z,17.02
2022-08-17T01:46:03.874Z,19.02
2022-08-17T01:48:51.410Z,19.30
2022-08-17T01:51:38.593Z,19.50
2022-08-17T01:54:25.929Z,18.65
2022-08-17T01:57:13.979Z,19.23
2022-08-17T02:00:01.026Z,16.10
2022-08-17T02:02:48.043Z,18.38
2022-08-17T02:05:35.182Z,20.27
2022-08-17T02:08:38.778Z,20.35
2022-08-17T02:11:26.474Z,15.32
2022-08-17T02:14:14.994Z,22.38
2022-08-17T02:17:02.022Z,16.60
2022-08-17T02:19:48.843Z,21.98
2022-08-17T02:22:36.228Z,16.55
2022-08-17T02:25:23.493Z,22.10
2022-08-17T02:28:12.309Z,23.33
2022-08-17T02:31:04.917Z,19.92
2022-08-17T02:34:03.436Z,18.83
2022-08-17T02:36:53.334Z,17.30
2022-08-17T02:39:40.272Z,21.85
2022-08-17T02:42:28.682Z,20.70
2022-08-17T02:45:20.309Z,20.27
2022-08-17T02:48:08.350Z,25.67
2022-08-17T02:50:54.974Z,18.83
2022-08-17T02:53:42.068Z,24.40
2022-08-17T02:56:28.456Z,24.38
2022-08-17T02:59:15.394Z,25.50
2022-08-17T03:02:04.334Z,21.27
2022-08-17T03:04:52.391Z,20.52
2022-08-17T03:07:39.592Z,20.75
2022-08-17T03:10:26.751Z,19.75
2022-08-17T03:13:14.473Z,18.97
2022-08-17T03:16:01.137Z,24.27
2022-08-17T03:18:48.510Z,24.27
2022-08-17T03:21:36.834Z,21.37
2022-08-17T03:24:28.612Z,18.77
2022-08-17T03:27:16.086Z,21.88
2022-08-17T03:30:03.388Z,20.02
2022-08-17T03:32:51.043Z,19.20
2022-08-17T03:35:40.213Z,24.38
2022-08-17T03:38:28.619Z,20.85
2022-08-17T03:41:26.005Z,21.47
2022-08-17T03:44:12.749Z,19.60
2022-08-17T03:47:17.124Z,25.40
2022-08-17T03:50:33.124Z,20.07
2022-08-17T03:53:37.668Z,23.15
2022-08-17T03:56:44.332Z,21.48
2022-08-17T03:59:31.409Z,19.05
2022-08-17T04:02:19.801Z,18.93
2022-08-17T04:05:07.110Z,18.35
2022-08-17T04:07:53.772Z,17.88
2022-08-17T04:10:44.951Z,19.23
2022-08-17T04:13:33.657Z,18.17
2022-08-17T04:16:20.472Z,21.90
2022-08-17T04:19:07.837Z,19.47
2022-08-17T04:21:54.898Z,20.17
2022-08-17T04:24:41.805Z,15.85
2022-08-17T04:27:28.764Z,18.38
2022-08-17T04:30:17.584Z,18.45
2022-08-17T04:33:08.584Z,15.65
2022-08-17T04:35:59.031Z,19.77
2022-08-17T04:38:47.413Z,18.13
2022-08-17T04:41:51.540Z,20.07
2022-08-17T04:44:38.450Z,19.35
2022-08-17T04:47:26.450Z,17.23
2022-08-17T04:50:13.277Z,15.98
2022-08-17T04:53:00.337Z,14.95
2022-08-17T04:55:47.625Z,19.67
2022-08-17T04:58:34.743Z,14.40
2022-08-17T05:01:23.685Z,16.52
2022-08-17T05:04:33.565Z,15.63
2022-08-17T05:07:23.964Z,14.35
2022-08-17T05:10:12.176Z,19.02
2022-08-17T05:12:59.978Z,19.00
2022-08-17T05:15:48.505Z,17.80
2022-08-17T05:18:37.122Z,17.42
2022-08-17T05:21:25.394Z,19.98
2022-08-17T05:24:16.718Z,17.55
2022-08-17T05:27:19.101Z,19.50
2022-08-17T05:30:06.246Z,21.02
2022-08-17T05:32:54.465Z,16.95
2022-08-17T05:35:44.381Z,16.90
2022-08-17T05:38:33.141Z,17.83
2022-08-17T05:41:19.907Z,19.33
2022-08-17T05:44:06.750Z,19.58
2022-08-17T05:46:54.303Z,16.20
2022-08-17T05:49:40.864Z,18.05
2022-08-17T05:52:31.234Z,16.65
2022-08-17T05:55:24.909Z,20.10
2022-08-17T05:58:18.521Z,16.90
2022-08-17T06:01:10.744Z,20.25
2022-08-17T06:04:02.407Z,22.50
2022-08-17T06:06:52.363Z,18.45
2022-08-17T06:09:41.197Z,18.67
2022-08-17T06:12:35.669Z,18.07
2022-08-17T06:15:28.875Z,18.27
2022-08-17T06:18:19.011Z,20.08
2022-08-17T06:21:08.809Z,18.57
2022-08-17T06:23:58.844Z,20.70
2022-08-17T06:26:46.272Z,16.20
2022-08-17T06:29:38.910Z,20.53
2022-08-17T06:32:26.243Z,24.75
2022-08-17T06:35:14.311Z,18.15
2022-08-17T06:38:08.472Z,20.13
2022-08-17T06:41:05.179Z,18.42
2022-08-17T06:43:58.787Z,15.77
2022-08-17T06:46:48.744Z,17.38
2022-08-17T06:49:36.620Z,15.75
2022-08-17T06:52:42.453Z,18.00
2022-08-17T06:55:37.890Z,13.38
2022-08-17T06:58:29.478Z,14.57
2022-08-17T07:01:18.836Z,12.80
2022-08-17T07:04:11.944Z,13.73
2022-08-17T07:07:01.060Z,18.52
2022-08-17T07:09:47.595Z,13.20
2022-08-17T07:12:38.435Z,12.05
2022-08-17T07:15:29.337Z,15.60
2022-08-17T07:18:16.294Z,14.80
2022-08-17T07:21:11.043Z,12.35
2022-08-17T07:24:05.071Z,21.30
2022-08-17T07:27:03.647Z,11.88
2022-08-17T07:29:53.519Z,12.63
2022-08-17T07:32:41.500Z,11.68
2022-08-17T07:35:41.376Z,11.70
2022-08-17T07:38:33.543Z,11.45
2022-08-17T07:41:21.800Z,15.05
2022-08-17T07:44:12.992Z,12.25
2022-08-17T07:47:25.497Z,10.83
2022-08-17T07:50:26.890Z,11.43
2022-08-17T07:53:18.255Z,10.23
2022-08-17T07:56:06.845Z,17.52
2022-08-17T07:59:07.121Z,12.02
2022-08-17T08:02:03.345Z,14.60
2022-08-17T08:05:02.032Z,13.38
2022-08-17T08:07:54.227Z,11.47
2022-08-17T08:10:45.330Z,12.23
2022-08-17T08:13:34.663Z,17.80
2022-08-17T08:16:27.003Z,18.52
2022-08-17T08:19:20.890Z,23.98
2022-08-17T08:22:11.547Z,12.93
2022-08-17T08:25:05.273Z,15.52
2022-08-17T08:27:56.564Z,12.70
2022-08-17T08:30:48.518Z,12.70
2022-08-17T08:33:45.020Z,13.83
2022-08-17T08:37:15.934Z,11.35
2022-08-17T08:39:52.462Z,13.43
2022-08-17T08:42:43.799Z,15.15
2022-08-17T08:45:38.294Z,16.55
2022-08-17T08:48:56.877Z,14.30
2022-08-17T08:51:47.664Z,13.95
2022-08-17T08:54:39.394Z,13.13
2022-08-17T08:57:33.661Z,12.80
2022-08-17T09:00:22.518Z,13.80
2022-08-17T09:03:43.795Z,17.65
2022-08-17T09:06:41.001Z,17.75
2022-08-17T09:09:35.109Z,17.17
2022-08-17T09:12:26.169Z,14.55
2022-08-17T09:15:17.679Z,15.90
2022-08-17T09:19:00.247Z,15.27
2022-08-17T09:21:18.285Z,17.05
2022-08-17T09:24:11.143Z,19.35
2022-08-17T09:27:00.702Z,17.00
2022-08-17T09:29:50.290Z,16.50
2022-08-17T09:32:39.413Z,14.27
2022-08-17T09:35:36.499Z,17.25
2022-08-17T09:38:31.760Z,18.65
2022-08-17T09:41:23.678Z,16.42
2022-08-17T09:44:23.382Z,12.10
2022-08-17T09:47:14.390Z,15.15
2022-08-17T09:50:05.030Z,16.38
2022-08-17T09:52:54.317Z,13.15
2022-08-17T09:55:45.841Z,12.68
2022-08-17T09:58:38.845Z,15.00
2022-08-17T10:01:31.427Z,13.95
2022-08-17T10:04:29.632Z,12.63
2022-08-17T10:07:19.052Z,14.20
2022-08-17T10:10:14.244Z,12.80
2022-08-17T10:13:09.537Z,11.15
2022-08-17T10:16:00.293Z,17.88
2022-08-17T10:18:52.341Z,13.63
2022-08-17T10:22:00.939Z,13.57
2022-08-17T10:25:23.836Z,10.65
2022-08-17T10:28:20.061Z,10.95
2022-08-17T10:31:33.806Z,13.32
2022-08-17T10:34:28.812Z,15.05
2022-08-17T10:37:29.493Z,12.40
2022-08-17T10:40:33.112Z,11.55
2022-08-17T10:43:29.525Z,13.63
2022-08-17T10:46:31.228Z,11.27
2022-08-17T10:49:25.773Z,13.10
2022-08-17T10:52:27.273Z,12.17
2022-08-17T10:55:17.745Z,14.45
2022-08-17T10:58:20.918Z,12.68
2022-08-17T11:01:12.465Z,12.80
2022-08-17T11:04:05.054Z,13.60
2022-08-17T11:06:55.060Z,12.60
2022-08-17T11:09:51.237Z,12.63
2022-08-17T11:12:43.482Z,12.02
2022-08-17T11:15:41.238Z,15.40
2022-08-17T11:18:36.710Z,12.40
2022-08-17T11:21:39.744Z,11.05
2022-08-17T11:24:33.151Z,15.07
2022-08-17T11:27:24.770Z,13.93
2022-08-17T11:30:13.999Z,10.63
2022-08-17T11:33:01.716Z,13.02
2022-08-17T11:35:51.407Z,18.63
2022-08-17T11:38:47.622Z,15.23
2022-08-17T11:41:41.086Z,14.30
2022-08-17T11:44:37.509Z,12.63
2022-08-17T11:47:53.017Z,12.60
2022-08-17T11:51:13.005Z,16.20
2022-08-17T11:54:31.001Z,12.02
2022-08-17T11:57:30.270Z,11.18
2022-08-17T12:00:36.047Z,13.82
2022-08-17T12:03:42.366Z,14.60
2022-08-17T12:06:46.590Z,14.93
2022-08-17T12:09:35.159Z,16.92
2022-08-17T12:12:29.433Z,14.65
2022-08-17T12:15:18.857Z,17.48
2022-08-17T12:18:05.718Z,13.73
2022-08-17T12:21:04.977Z,17.80
2022-08-17T12:23:56.016Z,14.77
2022-08-17T12:26:45.190Z,14.30
2022-08-17T12:29:35.796Z,19.65
2022-08-17T12:32:26.934Z,15.32
2022-08-17T12:35:20.921Z,14.63
2022-08-17T12:38:32.568Z,15.70
2022-08-17T12:41:29.754Z,19.15
2022-08-17T12:44:19.328Z,15.52
2022-08-17T12:47:09.612Z,12.82
2022-08-17T12:49:57.307Z,15.82
2022-08-17T12:52:44.731Z,16.42
2022-08-17T12:55:37.371Z,21.23
2022-08-17T12:58:25.797Z,18.08
2022-08-17T13:01:17.777Z,17.88
2022-08-17T13:04:06.559Z,16.60
2022-08-17T13:06:59.898Z,15.63
2022-08-17T13:09:52.130Z,20.40
2022-08-17T13:12:40.546Z,14.63
2022-08-17T13:15:29.605Z,18.65
2022-08-17T13:18:31.458Z,16.53
2022-08-17T13:21:27.157Z,15.00
2022-08-17T13:24:18.007Z,14.27
2022-08-17T13:27:07.877Z,18.13
2022-08-17T13:29:57.910Z,15.27
2022-08-17T13:32:46.492Z,22.45
2022-08-17T13:35:39.569Z,20.60
2022-08-17T13:38:40.967Z,19.55
2022-08-17T13:41:33.519Z,19.00
2022-08-17T13:44:33.622Z,19.95
2022-08-17T13:47:22.034Z,17.17
2022-08-17T13:50:20.581Z,16.90
2022-08-17T13:53:17.229Z,15.77
2022-08-17T13:56:37.720Z,20.15
2022-08-17T13:59:15.502Z,18.83
2022-08-17T14:02:02.593Z,24.77
2022-08-17T14:04:50.230Z,18.17
2022-08-17T14:07:41.051Z,20.58
2022-08-17T14:10:28.049Z,17.88
2022-08-17T14:13:16.285Z,21.73
2022-08-17T14:16:02.953Z,17.85
2022-08-17T14:18:56.206Z,17.75
2022-08-17T14:21:44.962Z,24.55
2022-08-17T14:24:32.816Z,15.82
2022-08-17T14:27:20.478Z,18.08
2022-08-17T14:30:10.324Z,18.23
2022-08-17T14:32:57.898Z,19.05
2022-08-17T14:35:44.746Z,17.10
2022-08-17T14:38:31.487Z,18.33
2022-08-17T14:41:22.059Z,16.23
2022-08-17T14:44:11.071Z,16.67
2022-08-17T14:46:59.154Z,16.55
2022-08-17T14:49:48.238Z,15.95
2022-08-17T14:52:35.122Z,17.15
2022-08-17T14:55:21.829Z,16.73
2022-08-17T14:58:09.332Z,20.27
2022-08-17T15:00:56.221Z,14.48
2022-08-17T15:03:44.615Z,13.35
2022-08-17T15:06:31.430Z,16.73
2022-08-17T15:09:18.343Z,12.68
2022-08-17T15:12:06.382Z,13.60
2022-08-17T15:14:53.100Z,11.07
2022-08-17T15:17:44.298Z,12.65
2022-08-17T15:20:35.525Z,13.93
2022-08-17T15:23:23.449Z,13.82
2022-08-17T15:26:10.268Z,14.45
2022-08-17T15:28:57.512Z,13.30
2022-08-17T15:31:44.879Z,13.90
2022-08-17T15:34:31.671Z,15.68
2022-08-17T15:37:20.013Z,10.82
2022-08-17T15:40:07.935Z,16.88
2022-08-17T15:42:55.206Z,10.80
2022-08-17T15:45:42.118Z,16.45
2022-08-17T15:48:41.232Z,12.93
2022-08-17T15:51:29.217Z,13.10
2022-08-17T15:54:22.152Z,12.32
2022-08-17T15:57:09.581Z,11.23
2022-08-17T15:59:58.911Z,12.98
2022-08-17T16:03:13.251Z,12.30
2022-08-17T16:05:53.634Z,12.55
2022-08-17T16:08:44.368Z,16.95
2022-08-17T16:11:32.305Z,11.23
2022-08-17T16:14:18.846Z,10.88
2022-08-17T16:17:38.380Z,12.90
2022-08-17T16:20:20.654Z,9.20
2022-08-17T16:23:07.986Z,7.87
2022-08-17T16:25:54.795Z,8.50
2022-08-17T16:28:42.870Z,8.38
2022-08-17T16:31:29.502Z,8.60
2022-08-17T16:34:18.712Z,7.03
2022-08-17T16:37:05.864Z,6.22
2022-08-17T16:39:52.690Z,7.68
2022-08-17T16:42:40.688Z,7.38
2022-08-17T16:45:36.808Z,10.75
2022-08-17T16:48:24.230Z,10.32
2022-08-17T16:51:11.234Z,16.85
2022-08-17T16:53:59.553Z,8.15
2022-08-17T16:56:46.677Z,10.53
2022-08-17T16:59:40.925Z,9.05
2022-08-17T17:02:33.521Z,7.45
2022-08-17T17:05:26.778Z,8.73
2022-08-17T17:08:14.974Z,10.57
2022-08-17T17:11:12.652Z,6.67
2022-08-17T17:14:01.925Z,9.02
2022-08-17T17:16:53.341Z,10.65
2022-08-17T17:19:45.454Z,8.80
2022-08-17T17:22:34.478Z,6.32
2022-08-17T17:25:25.993Z,8.10
2022-08-17T17:28:17.507Z,6.47
2022-08-17T17:31:10.539Z,6.60
2022-08-17T17:33:58.158Z,4.28
2022-08-17T17:36:49.897Z,7.00
2022-08-17T17:39:41.351Z,8.73
2022-08-17T17:42:32.926Z,5.60
2022-08-17T17:45:21.890Z,5.82
2022-08-17T17:48:08.525Z,5.30
2022-08-17T17:50:57.719Z,4.95
2022-08-17T17:53:50.042Z,5.55
2022-08-17T17:56:44.598Z,8.18
2022-08-17T17:59:43.737Z,9.13
2022-08-17T18:02:52.172Z,7.35
2022-08-17T18:05:54.767Z,7.40
2022-08-17T18:08:50.032Z,8.50
2022-08-17T18:11:51.538Z,8.45
2022-08-17T18:14:44.478Z,8.90
2022-08-17T18:17:31.128Z,9.52
2022-08-17T18:20:20.924Z,9.32
2022-08-17T18:23:28.153Z,9.25
2022-08-17T18:26:36.427Z,8.93
2022-08-17T18:29:25.389Z,7.90
2022-08-17T18:32:21.126Z,8.35
2022-08-17T18:35:29.256Z,11.35
2022-08-17T18:38:20.753Z,9.05
2022-08-17T18:41:18.485Z,14.18
2022-08-17T18:44:07.866Z,10.57
2022-08-17T18:47:07.345Z,13.48
2022-08-17T18:49:57.577Z,7.53
2022-08-17T18:52:44.315Z,9.40
2022-08-17T18:55:32.416Z,10.55
2022-08-17T18:58:20.680Z,9.35
2022-08-17T19:01:18.812Z,9.05
2022-08-17T19:04:05.847Z,9.25
2022-08-17T19:07:03.342Z,13.87
2022-08-17T19:09:52.044Z,10.88
2022-08-17T19:12:40.854Z,12.10
2022-08-17T19:15:29.268Z,10.93
2022-08-17T19:18:18.486Z,11.95
2022-08-17T19:21:07.621Z,8.03
2022-08-17T19:23:55.869Z,11.95
2022-08-17T19:26:51.080Z,9.80
2022-08-17T19:29:45.958Z,10.02
2022-08-17T19:32:34.166Z,11.87
2022-08-17T19:35:26.269Z,10.60
2022-08-17T19:38:21.795Z,9.48
2022-08-17T19:41:13.014Z,12.50
2022-08-17T19:44:07.640Z,9.85
2022-08-17T19:47:00.861Z,9.45
2022-08-17T19:49:54.003Z,10.23
2022-08-17T19:52:48.536Z,12.88
2022-08-17T19:55:43.603Z,10.15
2022-08-17T19:58:39.825Z,10.52
2022-08-17T20:01:34.885Z,7.47
2022-08-17T20:04:32.386Z,9.85
2022-08-17T20:07:23.345Z,7.30
2022-08-17T20:10:14.972Z,10.00
2022-08-17T20:13:05.581Z,12.05
2022-08-17T20:15:52.218Z,8.82
2022-08-17T20:18:44.048Z,9.38
2022-08-17T20:21:38.081Z,10.95
2022-08-17T20:24:30.493Z,9.10
2022-08-17T20:27:21.261Z,9.60
2022-08-17T20:30:13.257Z,9.98
2022-08-17T20:33:00.499Z,9.07
2022-08-17T20:36:02.734Z,9.57
2022-08-17T20:38:50.998Z,8.18
2022-08-17T20:42:02.507Z,9.43
2022-08-17T20:44:52.485Z,8.55
2022-08-17T20:48:00.752Z,9.27
2022-08-17T20:50:53.497Z,9.18
2022-08-17T20:53:59.190Z,5.57
2022-08-17T20:56:51.032Z,5.40
2022-08-17T20:59:59.303Z,11.35
2022-08-17T21:02:47.214Z,10.23
2022-08-17T21:05:34.951Z,6.78
2022-08-17T21:08:28.034Z,7.03
2022-08-17T21:11:56.882Z,8.82
2022-08-17T21:14:42.524Z,8.98
2022-08-17T21:17:45.216Z,7.50
2022-08-17T21:20:37.127Z,5.82
2022-08-17T21:23:31.220Z,10.48
2022-08-17T21:26:25.540Z,6.80
2022-08-17T21:29:32.315Z,9.60
2022-08-17T21:32:28.866Z,8.77
2022-08-17T21:35:28.510Z,6.90
2022-08-17T21:38:16.191Z,11.05
2022-08-17T21:41:03.149Z,7.30
2022-08-17T21:43:51.462Z,6.32
2022-08-17T21:46:39.886Z,6.85
2022-08-17T21:49:28.581Z,6.70
2022-08-17T21:52:18.301Z,6.38
2022-08-17T21:55:05.626Z,5.95
2022-08-17T21:57:53.023Z,7.65
2022-08-17T22:01:13.263Z,6.70
2022-08-17T22:04:03.247Z,8.02
2022-08-17T22:06:54.225Z,5.53
2022-08-17T22:09:46.351Z,7.80
2022-08-17T22:12:33.244Z,10.70
2022-08-17T22:15:20.533Z,5.40
2022-08-17T22:18:11.697Z,6.45
2022-08-17T22:20:59.766Z,4.78
2022-08-17T22:24:07.645Z,8.23
2022-08-17T22:27:07.059Z,5.63
2022-08-17T22:29:57.451Z,7.63
2022-08-17T22:32:45.852Z,6.38
2022-08-17T22:35:34.811Z,4.90
2022-08-17T22:38:29.482Z,6.23
2022-08-17T22:41:37.836Z,7.13
2022-08-17T22:44:28.256Z,5.07
2022-08-17T22:47:27.831Z,8.38
2022-08-17T22:50:18.579Z,8.17
2022-08-17T22:53:31.317Z,4.90
2022-08-17T22:56:37.283Z,6.32
2022-08-17T22:59:41.528Z,8.32
2022-08-17T23:02:29.467Z,6.63
2022-08-17T23:05:21.381Z,9.25
2022-08-17T23:08:08.157Z,8.35
2022-08-17T23:10:55.256Z,6.47
2022-08-17T23:13:42.205Z,7.38
2022-08-17T23:16:30.571Z,9.82
2022-08-17T23:19:19.374Z,6.70
2022-08-17T23:22:07.778Z,8.85
2022-08-17T23:24:54.659Z,10.57
2022-08-17T23:27:42.118Z,5.95
2022-08-17T23:30:30.261Z,14.20
2022-08-17T23:33:21.218Z,13.85
2022-08-17T23:36:09.645Z,11.75
2022-08-17T23:38:57.571Z,9.18
2022-08-17T23:41:44.570Z,10.38
2022-08-17T23:44:31.404Z,9.52
2022-08-17T23:47:18.445Z,10.60
2022-08-17T23:50:07.197Z,9.50
2022-08-17T23:52:54.230Z,11.90
2022-08-17T23:55:40.853Z,13.27
2022-08-17T23:58:28.601Z,10.32
